sensor_id;sensor_type;location;lat;lon;timestamp;P1;durP1;ratioP1;P2;durP2;ratioP2
67352;SDS011;54238;52.278;21.056;2023-05-07T00:00:05;8.80;;;3.90;;
67352;SDS011;54238;52.278;21.056;2023-05-07T00:05:30;4.30;;;3.40;;
67352;SDS011;54238;52.278;21.056;2023-05-07T00:11:12;6.00;;;4.20;;
67352;SDS011;54238;52.278;21.056;2023-05-07T00:13:42;7.10;;;4.20;;
67352;SDS011;54238;52.278;21.056;2023-05-07T00:16:09;4.60;;;3.20;;
67352;SDS011;54238;52.278;21.056;2023-05-07T00:18:37;10.40;;;4.20;;
67352;SDS011;54238;52.278;21.056;2023-05-07T00:21:06;7.40;;;4.00;;
67352;SDS011;54238;52.278;21.056;2023-05-07T00:23:35;4.70;;;3.20;;
67352;SDS011;54238;52.278;21.056;2023-05-07T00:26:07;5.10;;;3.70;;
67352;SDS011;54238;52.278;21.056;2023-05-07T00:28:43;5.20;;;3.50;;
67352;SDS011;54238;52.278;21.056;2023-05-07T00:31:12;6.50;;;3.10;;
67352;SDS011;54238;52.278;21.056;2023-05-07T00:33:44;6.30;;;3.30;;
67352;SDS011;54238;52.278;21.056;2023-05-07T00:36:13;6.90;;;3.00;;
67352;SDS011;54238;52.278;21.056;2023-05-07T00:38:43;3.90;;;3.20;;
67352;SDS011;54238;52.278;21.056;2023-05-07T00:41:19;7.00;;;3.60;;
67352;SDS011;54238;52.278;21.056;2023-05-07T00:46:57;6.30;;;3.40;;
67352;SDS011;54238;52.278;21.056;2023-05-07T00:49:35;4.70;;;3.20;;
67352;SDS011;54238;52.278;21.056;2023-05-07T00:52:11;8.00;;;3.60;;
67352;SDS011;54238;52.278;21.056;2023-05-07T00:54:41;4.40;;;3.40;;
67352;SDS011;54238;52.278;21.056;2023-05-07T00:57:14;6.60;;;3.60;;
67352;SDS011;54238;52.278;21.056;2023-05-07T00:59:44;8.90;;;2.50;;
67352;SDS011;54238;52.278;21.056;2023-05-07T01:02:11;6.50;;;3.00;;
67352;SDS011;54238;52.278;21.056;2023-05-07T01:07:10;7.80;;;3.20;;
67352;SDS011;54238;52.278;21.056;2023-05-07T01:09:40;6.30;;;3.10;;
67352;SDS011;54238;52.278;21.056;2023-05-07T01:12:44;8.10;;;3.50;;
67352;SDS011;54238;52.278;21.056;2023-05-07T01:15:21;9.20;;;4.00;;
67352;SDS011;54238;52.278;21.056;2023-05-07T01:17:49;6.00;;;3.10;;
67352;SDS011;54238;52.278;21.056;2023-05-07T01:20:17;5.40;;;3.20;;
67352;SDS011;54238;52.278;21.056;2023-05-07T01:22:49;4.10;;;3.20;;
67352;SDS011;54238;52.278;21.056;2023-05-07T01:25:21;5.20;;;3.10;;
67352;SDS011;54238;52.278;21.056;2023-05-07T01:27:53;4.30;;;3.20;;
67352;SDS011;54238;52.278;21.056;2023-05-07T01:30:26;5.60;;;3.10;;
67352;SDS011;54238;52.278;21.056;2023-05-07T01:33:06;5.70;;;2.90;;
67352;SDS011;54238;52.278;21.056;2023-05-07T01:38:33;5.70;;;3.20;;
67352;SDS011;54238;52.278;21.056;2023-05-07T01:41:03;10.70;;;3.60;;
67352;SDS011;54238;52.278;21.056;2023-05-07T01:43:35;4.80;;;2.60;;
67352;SDS011;54238;52.278;21.056;2023-05-07T01:46:10;7.30;;;3.40;;
67352;SDS011;54238;52.278;21.056;2023-05-07T01:48:39;5.00;;;2.90;;
67352;SDS011;54238;52.278;21.056;2023-05-07T01:54:04;5.50;;;3.10;;
67352;SDS011;54238;52.278;21.056;2023-05-07T01:56:41;6.10;;;3.00;;
67352;SDS011;54238;52.278;21.056;2023-05-07T01:59:08;5.40;;;3.20;;
67352;SDS011;54238;52.278;21.056;2023-05-07T02:01:35;6.90;;;3.20;;
67352;SDS011;54238;52.278;21.056;2023-05-07T02:04:08;8.40;;;2.90;;
67352;SDS011;54238;52.278;21.056;2023-05-07T02:06:37;4.00;;;3.10;;
67352;SDS011;54238;52.278;21.056;2023-05-07T02:09:07;3.50;;;2.80;;
67352;SDS011;54238;52.278;21.056;2023-05-07T02:11:38;4.70;;;2.30;;
67352;SDS011;54238;52.278;21.056;2023-05-07T02:14:07;6.80;;;2.80;;
67352;SDS011;54238;52.278;21.056;2023-05-07T02:16:37;2.70;;;2.30;;
67352;SDS011;54238;52.278;21.056;2023-05-07T02:19:06;3.20;;;2.20;;
67352;SDS011;54238;52.278;21.056;2023-05-07T02:21:33;4.60;;;2.60;;
67352;SDS011;54238;52.278;21.056;2023-05-07T02:24:02;3.80;;;3.00;;
67352;SDS011;54238;52.278;21.056;2023-05-07T02:26:30;2.60;;;2.20;;
67352;SDS011;54238;52.278;21.056;2023-05-07T02:29:01;5.50;;;2.90;;
67352;SDS011;54238;52.278;21.056;2023-05-07T02:31:28;3.50;;;2.50;;
67352;SDS011;54238;52.278;21.056;2023-05-07T02:33:55;3.60;;;2.70;;
67352;SDS011;54238;52.278;21.056;2023-05-07T02:36:24;3.20;;;2.30;;
67352;SDS011;54238;52.278;21.056;2023-05-07T02:38:54;5.60;;;2.70;;
67352;SDS011;54238;52.278;21.056;2023-05-07T02:41:24;3.30;;;2.50;;
67352;SDS011;54238;52.278;21.056;2023-05-07T02:43:51;3.20;;;2.40;;
67352;SDS011;54238;52.278;21.056;2023-05-07T02:46:21;5.20;;;3.00;;
67352;SDS011;54238;52.278;21.056;2023-05-07T02:48:50;4.30;;;2.70;;
67352;SDS011;54238;52.278;21.056;2023-05-07T02:51:20;7.50;;;3.20;;
67352;SDS011;54238;52.278;21.056;2023-05-07T02:53:51;2.70;;;2.40;;
67352;SDS011;54238;52.278;21.056;2023-05-07T02:56:28;3.60;;;2.20;;
67352;SDS011;54238;52.278;21.056;2023-05-07T02:59:01;4.30;;;2.90;;
67352;SDS011;54238;52.278;21.056;2023-05-07T03:01:30;4.40;;;2.60;;
67352;SDS011;54238;52.278;21.056;2023-05-07T03:03:59;3.80;;;2.60;;
67352;SDS011;54238;52.278;21.056;2023-05-07T03:06:26;4.60;;;2.50;;
67352;SDS011;54238;52.278;21.056;2023-05-07T03:08:55;5.00;;;2.70;;
67352;SDS011;54238;52.278;21.056;2023-05-07T03:11:24;8.00;;;2.80;;
67352;SDS011;54238;52.278;21.056;2023-05-07T03:13:57;4.40;;;3.00;;
67352;SDS011;54238;52.278;21.056;2023-05-07T03:16:26;3.50;;;2.40;;
67352;SDS011;54238;52.278;21.056;2023-05-07T03:21:56;3.70;;;2.30;;
67352;SDS011;54238;52.278;21.056;2023-05-07T03:24:26;3.60;;;2.50;;
67352;SDS011;54238;52.278;21.056;2023-05-07T03:26:56;3.80;;;2.70;;
67352;SDS011;54238;52.278;21.056;2023-05-07T03:29:28;3.40;;;2.40;;
67352;SDS011;54238;52.278;21.056;2023-05-07T03:31:58;7.30;;;3.10;;
67352;SDS011;54238;52.278;21.056;2023-05-07T03:34:31;3.90;;;2.80;;
67352;SDS011;54238;52.278;21.056;2023-05-07T03:36:58;4.40;;;2.60;;
67352;SDS011;54238;52.278;21.056;2023-05-07T03:39:25;3.70;;;2.60;;
67352;SDS011;54238;52.278;21.056;2023-05-07T03:41:53;8.60;;;3.40;;
67352;SDS011;54238;52.278;21.056;2023-05-07T03:44:25;4.50;;;2.70;;
67352;SDS011;54238;52.278;21.056;2023-05-07T03:46:59;4.90;;;3.30;;
67352;SDS011;54238;52.278;21.056;2023-05-07T03:49:31;3.70;;;2.60;;
67352;SDS011;54238;52.278;21.056;2023-05-07T03:51:59;4.40;;;2.50;;
67352;SDS011;54238;52.278;21.056;2023-05-07T03:54:28;6.70;;;3.00;;
67352;SDS011;54238;52.278;21.056;2023-05-07T03:56:55;4.50;;;3.10;;
67352;SDS011;54238;52.278;21.056;2023-05-07T03:59:27;7.30;;;3.10;;
67352;SDS011;54238;52.278;21.056;2023-05-07T04:01:58;3.40;;;2.10;;
67352;SDS011;54238;52.278;21.056;2023-05-07T04:04:27;3.00;;;2.50;;
67352;SDS011;54238;52.278;21.056;2023-05-07T04:06:56;3.50;;;2.50;;
67352;SDS011;54238;52.278;21.056;2023-05-07T04:09:26;3.60;;;2.60;;
67352;SDS011;54238;52.278;21.056;2023-05-07T04:11:55;4.20;;;2.50;;
67352;SDS011;54238;52.278;21.056;2023-05-07T04:14:27;5.50;;;2.80;;
67352;SDS011;54238;52.278;21.056;2023-05-07T04:17:02;5.80;;;2.70;;
67352;SDS011;54238;52.278;21.056;2023-05-07T04:19:32;4.00;;;2.00;;
67352;SDS011;54238;52.278;21.056;2023-05-07T04:22:03;4.70;;;2.80;;
67352;SDS011;54238;52.278;21.056;2023-05-07T04:24:32;3.40;;;2.40;;
67352;SDS011;54238;52.278;21.056;2023-05-07T04:27:07;5.30;;;2.90;;
67352;SDS011;54238;52.278;21.056;2023-05-07T04:29:37;2.80;;;2.20;;
67352;SDS011;54238;52.278;21.056;2023-05-07T04:32:09;4.60;;;2.40;;
67352;SDS011;54238;52.278;21.056;2023-05-07T04:34:36;5.50;;;2.90;;
67352;SDS011;54238;52.278;21.056;2023-05-07T04:40:01;4.50;;;3.00;;
67352;SDS011;54238;52.278;21.056;2023-05-07T04:42:32;3.30;;;2.80;;
67352;SDS011;54238;52.278;21.056;2023-05-07T04:45:02;3.60;;;2.60;;
67352;SDS011;54238;52.278;21.056;2023-05-07T04:47:34;5.10;;;3.30;;
67352;SDS011;54238;52.278;21.056;2023-05-07T04:50:04;5.90;;;3.10;;
67352;SDS011;54238;52.278;21.056;2023-05-07T04:52:35;8.10;;;3.20;;
67352;SDS011;54238;52.278;21.056;2023-05-07T04:55:07;4.20;;;2.80;;
67352;SDS011;54238;52.278;21.056;2023-05-07T04:57:45;3.40;;;3.00;;
67352;SDS011;54238;52.278;21.056;2023-05-07T05:00:13;3.50;;;2.40;;
67352;SDS011;54238;52.278;21.056;2023-05-07T05:02:51;5.90;;;3.10;;
67352;SDS011;54238;52.278;21.056;2023-05-07T05:05:20;3.50;;;2.60;;
67352;SDS011;54238;52.278;21.056;2023-05-07T05:07:50;4.10;;;2.60;;
67352;SDS011;54238;52.278;21.056;2023-05-07T05:10:20;3.90;;;2.60;;
67352;SDS011;54238;52.278;21.056;2023-05-07T05:12:47;3.90;;;2.70;;
67352;SDS011;54238;52.278;21.056;2023-05-07T05:15:21;9.70;;;2.70;;
67352;SDS011;54238;52.278;21.056;2023-05-07T05:17:51;5.90;;;2.90;;
67352;SDS011;54238;52.278;21.056;2023-05-07T05:20:20;4.70;;;2.60;;
67352;SDS011;54238;52.278;21.056;2023-05-07T05:22:54;3.70;;;2.50;;
67352;SDS011;54238;52.278;21.056;2023-05-07T05:25:26;5.10;;;2.40;;
67352;SDS011;54238;52.278;21.056;2023-05-07T05:27:55;5.10;;;2.60;;
67352;SDS011;54238;52.278;21.056;2023-05-07T05:30:29;3.30;;;2.40;;
67352;SDS011;54238;52.278;21.056;2023-05-07T05:33:01;4.50;;;2.60;;
67352;SDS011;54238;52.278;21.056;2023-05-07T05:35:29;5.80;;;3.40;;
67352;SDS011;54238;52.278;21.056;2023-05-07T05:37:59;6.40;;;2.90;;
67352;SDS011;54238;52.278;21.056;2023-05-07T05:40:29;4.20;;;2.60;;
67352;SDS011;54238;52.278;21.056;2023-05-07T05:42:56;4.40;;;2.40;;
67352;SDS011;54238;52.278;21.056;2023-05-07T05:45:30;5.20;;;2.40;;
67352;SDS011;54238;52.278;21.056;2023-05-07T05:48:02;3.20;;;2.20;;
67352;SDS011;54238;52.278;21.056;2023-05-07T05:50:32;2.20;;;1.80;;
67352;SDS011;54238;52.278;21.056;2023-05-07T05:53:01;4.60;;;2.70;;
67352;SDS011;54238;52.278;21.056;2023-05-07T05:55:29;4.40;;;2.70;;
67352;SDS011;54238;52.278;21.056;2023-05-07T05:58:00;4.40;;;2.80;;
67352;SDS011;54238;52.278;21.056;2023-05-07T06:00:30;6.00;;;2.50;;
67352;SDS011;54238;52.278;21.056;2023-05-07T06:02:57;3.70;;;2.40;;
67352;SDS011;54238;52.278;21.056;2023-05-07T06:05:27;4.50;;;2.70;;
67352;SDS011;54238;52.278;21.056;2023-05-07T06:07:59;3.80;;;2.30;;
67352;SDS011;54238;52.278;21.056;2023-05-07T06:10:28;5.30;;;2.30;;
67352;SDS011;54238;52.278;21.056;2023-05-07T06:12:59;2.80;;;2.10;;
67352;SDS011;54238;52.278;21.056;2023-05-07T06:15:31;2.80;;;2.20;;
67352;SDS011;54238;52.278;21.056;2023-05-07T06:18:03;3.30;;;2.20;;
67352;SDS011;54238;52.278;21.056;2023-05-07T06:20:32;3.90;;;2.40;;
67352;SDS011;54238;52.278;21.056;2023-05-07T06:23:01;3.50;;;2.50;;
67352;SDS011;54238;52.278;21.056;2023-05-07T06:25:31;3.70;;;2.40;;
67352;SDS011;54238;52.278;21.056;2023-05-07T06:28:01;3.50;;;1.90;;
67352;SDS011;54238;52.278;21.056;2023-05-07T06:30:28;3.70;;;2.60;;
67352;SDS011;54238;52.278;21.056;2023-05-07T06:33:01;2.20;;;2.00;;
67352;SDS011;54238;52.278;21.056;2023-05-07T06:35:31;4.00;;;2.30;;
67352;SDS011;54238;52.278;21.056;2023-05-07T06:38:07;4.00;;;2.60;;
67352;SDS011;54238;52.278;21.056;2023-05-07T06:43:04;5.20;;;2.40;;
67352;SDS011;54238;52.278;21.056;2023-05-07T06:45:34;3.30;;;2.50;;
67352;SDS011;54238;52.278;21.056;2023-05-07T06:48:03;5.40;;;2.50;;
67352;SDS011;54238;52.278;21.056;2023-05-07T06:50:31;3.50;;;2.40;;
67352;SDS011;54238;52.278;21.056;2023-05-07T06:52:58;4.80;;;2.90;;
67352;SDS011;54238;52.278;21.056;2023-05-07T06:55:25;3.60;;;2.50;;
67352;SDS011;54238;52.278;21.056;2023-05-07T06:58:00;3.30;;;2.40;;
67352;SDS011;54238;52.278;21.056;2023-05-07T07:00:31;3.80;;;2.40;;
67352;SDS011;54238;52.278;21.056;2023-05-07T07:03:01;3.70;;;2.50;;
67352;SDS011;54238;52.278;21.056;2023-05-07T07:05:31;3.30;;;2.70;;
67352;SDS011;54238;52.278;21.056;2023-05-07T07:08:04;4.80;;;2.70;;
67352;SDS011;54238;52.278;21.056;2023-05-07T07:10:32;4.10;;;2.40;;
67352;SDS011;54238;52.278;21.056;2023-05-07T07:13:01;3.80;;;2.60;;
67352;SDS011;54238;52.278;21.056;2023-05-07T07:15:34;3.90;;;2.40;;
67352;SDS011;54238;52.278;21.056;2023-05-07T07:18:01;4.00;;;2.50;;
67352;SDS011;54238;52.278;21.056;2023-05-07T07:20:33;2.30;;;1.90;;
67352;SDS011;54238;52.278;21.056;2023-05-07T07:23:00;6.50;;;2.80;;
67352;SDS011;54238;52.278;21.056;2023-05-07T07:25:28;3.50;;;2.60;;
67352;SDS011;54238;52.278;21.056;2023-05-07T07:27:59;5.50;;;2.50;;
67352;SDS011;54238;52.278;21.056;2023-05-07T07:30:31;7.60;;;2.40;;
67352;SDS011;54238;52.278;21.056;2023-05-07T07:32:59;4.30;;;2.60;;
67352;SDS011;54238;52.278;21.056;2023-05-07T07:35:30;3.40;;;2.40;;
67352;SDS011;54238;52.278;21.056;2023-05-07T07:38:01;3.00;;;2.30;;
67352;SDS011;54238;52.278;21.056;2023-05-07T07:40:41;3.20;;;2.00;;
67352;SDS011;54238;52.278;21.056;2023-05-07T07:43:10;2.90;;;2.30;;
67352;SDS011;54238;52.278;21.056;2023-05-07T07:45:38;4.20;;;2.50;;
67352;SDS011;54238;52.278;21.056;2023-05-07T07:48:05;2.50;;;1.60;;
67352;SDS011;54238;52.278;21.056;2023-05-07T07:50:37;3.50;;;1.70;;
67352;SDS011;54238;52.278;21.056;2023-05-07T07:53:08;3.10;;;2.00;;
67352;SDS011;54238;52.278;21.056;2023-05-07T07:55:40;3.30;;;1.80;;
67352;SDS011;54238;52.278;21.056;2023-05-07T07:58:11;3.10;;;2.20;;
67352;SDS011;54238;52.278;21.056;2023-05-07T08:00:57;4.90;;;2.10;;
67352;SDS011;54238;52.278;21.056;2023-05-07T08:03:26;3.70;;;2.30;;
67352;SDS011;54238;52.278;21.056;2023-05-07T08:05:58;3.10;;;2.20;;
67352;SDS011;54238;52.278;21.056;2023-05-07T08:10:57;2.40;;;2.10;;
67352;SDS011;54238;52.278;21.056;2023-05-07T08:13:25;3.50;;;2.10;;
67352;SDS011;54238;52.278;21.056;2023-05-07T08:15:54;3.20;;;2.00;;
67352;SDS011;54238;52.278;21.056;2023-05-07T08:18:21;5.40;;;2.40;;
67352;SDS011;54238;52.278;21.056;2023-05-07T08:20:51;3.90;;;2.20;;
67352;SDS011;54238;52.278;21.056;2023-05-07T08:23:21;3.20;;;2.20;;
67352;SDS011;54238;52.278;21.056;2023-05-07T08:25:51;3.90;;;2.10;;
67352;SDS011;54238;52.278;21.056;2023-05-07T08:28:21;3.70;;;2.40;;
67352;SDS011;54238;52.278;21.056;2023-05-07T08:30:53;2.70;;;2.10;;
67352;SDS011;54238;52.278;21.056;2023-05-07T08:33:21;7.50;;;2.40;;
67352;SDS011;54238;52.278;21.056;2023-05-07T08:35:53;3.90;;;2.20;;
67352;SDS011;54238;52.278;21.056;2023-05-07T08:38:22;5.40;;;2.40;;
67352;SDS011;54238;52.278;21.056;2023-05-07T08:40:51;3.00;;;2.20;;
67352;SDS011;54238;52.278;21.056;2023-05-07T08:43:40;5.60;;;2.40;;
67352;SDS011;54238;52.278;21.056;2023-05-07T08:46:50;2.90;;;1.80;;
67352;SDS011;54238;52.278;21.056;2023-05-07T08:49:21;5.60;;;2.10;;
67352;SDS011;54238;52.278;21.056;2023-05-07T08:51:51;4.20;;;1.90;;
67352;SDS011;54238;52.278;21.056;2023-05-07T08:54:38;3.60;;;2.30;;
67352;SDS011;54238;52.278;21.056;2023-05-07T08:57:08;3.80;;;2.10;;
67352;SDS011;54238;52.278;21.056;2023-05-07T08:59:40;4.20;;;2.00;;
67352;SDS011;54238;52.278;21.056;2023-05-07T09:02:11;5.20;;;2.20;;
67352;SDS011;54238;52.278;21.056;2023-05-07T09:05:03;4.40;;;2.20;;
67352;SDS011;54238;52.278;21.056;2023-05-07T09:07:37;2.60;;;1.80;;
67352;SDS011;54238;52.278;21.056;2023-05-07T09:10:09;4.00;;;2.40;;
67352;SDS011;54238;52.278;21.056;2023-05-07T09:12:59;4.00;;;2.20;;
67352;SDS011;54238;52.278;21.056;2023-05-07T09:15:28;4.50;;;2.20;;
67352;SDS011;54238;52.278;21.056;2023-05-07T09:18:05;6.80;;;2.10;;
67352;SDS011;54238;52.278;21.056;2023-05-07T09:20:36;4.90;;;2.10;;
67352;SDS011;54238;52.278;21.056;2023-05-07T09:23:06;2.60;;;1.80;;
67352;SDS011;54238;52.278;21.056;2023-05-07T09:25:36;2.90;;;1.90;;
67352;SDS011;54238;52.278;21.056;2023-05-07T09:28:05;3.80;;;2.40;;
67352;SDS011;54238;52.278;21.056;2023-05-07T09:30:42;2.20;;;1.80;;
67352;SDS011;54238;52.278;21.056;2023-05-07T09:33:09;2.70;;;1.80;;
67352;SDS011;54238;52.278;21.056;2023-05-07T09:35:39;4.60;;;2.00;;
67352;SDS011;54238;52.278;21.056;2023-05-07T09:38:14;4.20;;;2.30;;
67352;SDS011;54238;52.278;21.056;2023-05-07T09:41:01;4.20;;;2.20;;
67352;SDS011;54238;52.278;21.056;2023-05-07T09:43:37;8.10;;;1.90;;
67352;SDS011;54238;52.278;21.056;2023-05-07T09:46:13;3.20;;;1.90;;
67352;SDS011;54238;52.278;21.056;2023-05-07T09:48:44;6.20;;;2.20;;
67352;SDS011;54238;52.278;21.056;2023-05-07T09:51:49;3.80;;;1.80;;
67352;SDS011;54238;52.278;21.056;2023-05-07T09:54:18;2.50;;;1.70;;
67352;SDS011;54238;52.278;21.056;2023-05-07T09:56:48;3.30;;;1.60;;
67352;SDS011;54238;52.278;21.056;2023-05-07T09:59:18;3.20;;;1.30;;
67352;SDS011;54238;52.278;21.056;2023-05-07T10:01:51;2.80;;;1.80;;
67352;SDS011;54238;52.278;21.056;2023-05-07T10:04:28;2.60;;;1.50;;
67352;SDS011;54238;52.278;21.056;2023-05-07T10:06:56;2.60;;;1.60;;
67352;SDS011;54238;52.278;21.056;2023-05-07T10:12:26;4.80;;;1.90;;
67352;SDS011;54238;52.278;21.056;2023-05-07T10:14:57;3.00;;;2.00;;
67352;SDS011;54238;52.278;21.056;2023-05-07T10:17:26;4.50;;;1.80;;
67352;SDS011;54238;52.278;21.056;2023-05-07T10:19:53;4.00;;;1.80;;
67352;SDS011;54238;52.278;21.056;2023-05-07T10:22:24;6.00;;;1.80;;
67352;SDS011;54238;52.278;21.056;2023-05-07T10:24:55;6.20;;;2.10;;
67352;SDS011;54238;52.278;21.056;2023-05-07T10:27:28;3.40;;;1.50;;
67352;SDS011;54238;52.278;21.056;2023-05-07T10:30:17;3.60;;;1.70;;
67352;SDS011;54238;52.278;21.056;2023-05-07T10:32:57;2.20;;;1.60;;
67352;SDS011;54238;52.278;21.056;2023-05-07T10:35:38;3.50;;;1.70;;
67352;SDS011;54238;52.278;21.056;2023-05-07T10:38:12;4.00;;;1.90;;
67352;SDS011;54238;52.278;21.056;2023-05-07T10:40:42;4.60;;;2.00;;
67352;SDS011;54238;52.278;21.056;2023-05-07T10:43:15;2.80;;;1.70;;
67352;SDS011;54238;52.278;21.056;2023-05-07T10:51:30;3.90;;;1.70;;
67352;SDS011;54238;52.278;21.056;2023-05-07T10:56:44;3.90;;;2.20;;
67352;SDS011;54238;52.278;21.056;2023-05-07T11:04:33;3.30;;;1.50;;
67352;SDS011;54238;52.278;21.056;2023-05-07T11:15:09;2.30;;;1.40;;
67352;SDS011;54238;52.278;21.056;2023-05-07T11:17:57;2.30;;;1.50;;
67352;SDS011;54238;52.278;21.056;2023-05-07T11:26:12;2.90;;;1.90;;
67352;SDS011;54238;52.278;21.056;2023-05-07T11:28:43;5.00;;;1.50;;
67352;SDS011;54238;52.278;21.056;2023-05-07T11:31:10;3.10;;;1.50;;
67352;SDS011;54238;52.278;21.056;2023-05-07T11:33:43;3.00;;;1.30;;
67352;SDS011;54238;52.278;21.056;2023-05-07T11:36:15;3.40;;;1.60;;
67352;SDS011;54238;52.278;21.056;2023-05-07T11:38:48;4.00;;;1.70;;
67352;SDS011;54238;52.278;21.056;2023-05-07T11:41:18;2.60;;;1.30;;
67352;SDS011;54238;52.278;21.056;2023-05-07T11:43:54;8.30;;;1.90;;
67352;SDS011;54238;52.278;21.056;2023-05-07T11:46:30;3.20;;;1.70;;
67352;SDS011;54238;52.278;21.056;2023-05-07T11:51:27;4.20;;;1.30;;
67352;SDS011;54238;52.278;21.056;2023-05-07T11:53:57;6.10;;;1.70;;
67352;SDS011;54238;52.278;21.056;2023-05-07T11:56:29;2.60;;;1.60;;
67352;SDS011;54238;52.278;21.056;2023-05-07T11:58:57;3.50;;;1.90;;
67352;SDS011;54238;52.278;21.056;2023-05-07T12:01:24;4.50;;;1.90;;
67352;SDS011;54238;52.278;21.056;2023-05-07T12:03:55;3.00;;;1.80;;
67352;SDS011;54238;52.278;21.056;2023-05-07T12:06:28;2.00;;;1.40;;
67352;SDS011;54238;52.278;21.056;2023-05-07T12:08:58;2.80;;;1.60;;
67352;SDS011;54238;52.278;21.056;2023-05-07T12:11:32;3.40;;;1.60;;
67352;SDS011;54238;52.278;21.056;2023-05-07T12:14:04;5.60;;;1.70;;
67352;SDS011;54238;52.278;21.056;2023-05-07T12:16:31;5.30;;;1.70;;
67352;SDS011;54238;52.278;21.056;2023-05-07T12:19:01;5.90;;;1.90;;
67352;SDS011;54238;52.278;21.056;2023-05-07T12:21:33;4.30;;;1.60;;
67352;SDS011;54238;52.278;21.056;2023-05-07T12:24:01;4.40;;;1.80;;
67352;SDS011;54238;52.278;21.056;2023-05-07T12:26:31;2.40;;;1.60;;
67352;SDS011;54238;52.278;21.056;2023-05-07T12:28:58;1.60;;;1.30;;
67352;SDS011;54238;52.278;21.056;2023-05-07T12:31:28;2.50;;;1.50;;
67352;SDS011;54238;52.278;21.056;2023-05-07T12:33:55;2.80;;;1.70;;
67352;SDS011;54238;52.278;21.056;2023-05-07T12:36:22;4.20;;;1.20;;
67352;SDS011;54238;52.278;21.056;2023-05-07T12:38:54;2.70;;;1.80;;
67352;SDS011;54238;52.278;21.056;2023-05-07T12:41:23;2.00;;;1.50;;
67352;SDS011;54238;52.278;21.056;2023-05-07T12:43:56;7.70;;;2.10;;
67352;SDS011;54238;52.278;21.056;2023-05-07T12:46:25;1.80;;;1.30;;
67352;SDS011;54238;52.278;21.056;2023-05-07T12:49:01;3.30;;;2.10;;
67352;SDS011;54238;52.278;21.056;2023-05-07T12:51:31;4.20;;;2.00;;
67352;SDS011;54238;52.278;21.056;2023-05-07T12:54:03;2.60;;;1.50;;
67352;SDS011;54238;52.278;21.056;2023-05-07T12:56:35;5.90;;;2.30;;
67352;SDS011;54238;52.278;21.056;2023-05-07T12:59:03;4.40;;;2.00;;
67352;SDS011;54238;52.278;21.056;2023-05-07T13:01:35;3.70;;;1.70;;
67352;SDS011;54238;52.278;21.056;2023-05-07T13:04:03;5.40;;;2.60;;
67352;SDS011;54238;52.278;21.056;2023-05-07T13:06:32;3.70;;;2.20;;
67352;SDS011;54238;52.278;21.056;2023-05-07T13:09:02;4.80;;;1.70;;
67352;SDS011;54238;52.278;21.056;2023-05-07T13:18:47;4.00;;;2.00;;
67352;SDS011;54238;52.278;21.056;2023-05-07T13:21:14;3.80;;;1.60;;
67352;SDS011;54238;52.278;21.056;2023-05-07T13:23:46;2.60;;;1.50;;
67352;SDS011;54238;52.278;21.056;2023-05-07T13:26:15;2.10;;;1.40;;
67352;SDS011;54238;52.278;21.056;2023-05-07T13:28:53;2.90;;;1.70;;
67352;SDS011;54238;52.278;21.056;2023-05-07T13:31:24;2.00;;;1.40;;
67352;SDS011;54238;52.278;21.056;2023-05-07T13:33:51;5.00;;;1.70;;
67352;SDS011;54238;52.278;21.056;2023-05-07T13:36:22;2.50;;;1.30;;
67352;SDS011;54238;52.278;21.056;2023-05-07T13:38:50;1.80;;;1.30;;
67352;SDS011;54238;52.278;21.056;2023-05-07T13:41:23;2.70;;;1.30;;
67352;SDS011;54238;52.278;21.056;2023-05-07T13:43:50;6.40;;;1.30;;
67352;SDS011;54238;52.278;21.056;2023-05-07T13:46:21;5.90;;;1.40;;
67352;SDS011;54238;52.278;21.056;2023-05-07T13:48:48;2.40;;;1.70;;
67352;SDS011;54238;52.278;21.056;2023-05-07T13:51:22;4.40;;;1.40;;
67352;SDS011;54238;52.278;21.056;2023-05-07T13:53:49;3.00;;;1.40;;
67352;SDS011;54238;52.278;21.056;2023-05-07T13:56:18;2.30;;;1.40;;
67352;SDS011;54238;52.278;21.056;2023-05-07T13:58:50;2.70;;;1.30;;
67352;SDS011;54238;52.278;21.056;2023-05-07T14:01:19;2.10;;;1.50;;
67352;SDS011;54238;52.278;21.056;2023-05-07T14:03:50;4.00;;;1.50;;
67352;SDS011;54238;52.278;21.056;2023-05-07T14:06:22;1.90;;;1.40;;
67352;SDS011;54238;52.278;21.056;2023-05-07T14:08:54;3.60;;;1.20;;
67352;SDS011;54238;52.278;21.056;2023-05-07T14:11:24;3.00;;;1.60;;
67352;SDS011;54238;52.278;21.056;2023-05-07T14:13:51;2.60;;;1.40;;
67352;SDS011;54238;52.278;21.056;2023-05-07T14:16:21;1.50;;;1.20;;
67352;SDS011;54238;52.278;21.056;2023-05-07T14:18:53;3.10;;;1.50;;
67352;SDS011;54238;52.278;21.056;2023-05-07T14:21:20;4.00;;;1.60;;
67352;SDS011;54238;52.278;21.056;2023-05-07T14:23:47;2.70;;;1.80;;
67352;SDS011;54238;52.278;21.056;2023-05-07T14:26:17;2.50;;;1.60;;
67352;SDS011;54238;52.278;21.056;2023-05-07T14:28:46;3.90;;;1.70;;
67352;SDS011;54238;52.278;21.056;2023-05-07T14:31:16;1.40;;;1.30;;
67352;SDS011;54238;52.278;21.056;2023-05-07T14:33:47;7.90;;;1.60;;
67352;SDS011;54238;52.278;21.056;2023-05-07T14:36:21;3.00;;;1.70;;
67352;SDS011;54238;52.278;21.056;2023-05-07T14:38:49;2.80;;;1.40;;
67352;SDS011;54238;52.278;21.056;2023-05-07T14:41:19;2.50;;;1.60;;
67352;SDS011;54238;52.278;21.056;2023-05-07T14:43:50;1.90;;;1.50;;
67352;SDS011;54238;52.278;21.056;2023-05-07T14:46:18;3.80;;;1.80;;
67352;SDS011;54238;52.278;21.056;2023-05-07T14:48:46;3.50;;;1.70;;
67352;SDS011;54238;52.278;21.056;2023-05-07T14:54:57;4.70;;;1.50;;
67352;SDS011;54238;52.278;21.056;2023-05-07T14:57:27;4.00;;;1.50;;
67352;SDS011;54238;52.278;21.056;2023-05-07T14:59:59;5.30;;;1.50;;
67352;SDS011;54238;52.278;21.056;2023-05-07T15:02:31;3.20;;;1.60;;
67352;SDS011;54238;52.278;21.056;2023-05-07T15:05:01;2.10;;;1.60;;
67352;SDS011;54238;52.278;21.056;2023-05-07T15:07:31;3.20;;;1.60;;
67352;SDS011;54238;52.278;21.056;2023-05-07T15:10:02;1.90;;;1.50;;
67352;SDS011;54238;52.278;21.056;2023-05-07T15:12:29;2.40;;;1.50;;
67352;SDS011;54238;52.278;21.056;2023-05-07T15:14:56;3.20;;;1.50;;
67352;SDS011;54238;52.278;21.056;2023-05-07T15:17:26;3.10;;;1.90;;
67352;SDS011;54238;52.278;21.056;2023-05-07T15:19:53;2.30;;;1.70;;
67352;SDS011;54238;52.278;21.056;2023-05-07T15:22:25;3.90;;;1.80;;
67352;SDS011;54238;52.278;21.056;2023-05-07T15:24:54;4.10;;;2.10;;
67352;SDS011;54238;52.278;21.056;2023-05-07T15:27:28;2.40;;;1.80;;
67352;SDS011;54238;52.278;21.056;2023-05-07T15:30:00;3.10;;;1.80;;
67352;SDS011;54238;52.278;21.056;2023-05-07T15:32:35;6.50;;;1.80;;
67352;SDS011;54238;52.278;21.056;2023-05-07T15:35:05;4.80;;;1.40;;
67352;SDS011;54238;52.278;21.056;2023-05-07T15:37:34;3.70;;;1.80;;
67352;SDS011;54238;52.278;21.056;2023-05-07T15:40:03;6.00;;;1.50;;
67352;SDS011;54238;52.278;21.056;2023-05-07T15:42:34;3.60;;;1.80;;
67352;SDS011;54238;52.278;21.056;2023-05-07T15:45:09;4.80;;;1.70;;
67352;SDS011;54238;52.278;21.056;2023-05-07T15:47:39;6.40;;;2.10;;
67352;SDS011;54238;52.278;21.056;2023-05-07T15:50:12;6.00;;;2.00;;
67352;SDS011;54238;52.278;21.056;2023-05-07T15:52:44;3.50;;;1.80;;
67352;SDS011;54238;52.278;21.056;2023-05-07T15:55:17;3.40;;;1.70;;
67352;SDS011;54238;52.278;21.056;2023-05-07T15:57:44;3.40;;;2.00;;
67352;SDS011;54238;52.278;21.056;2023-05-07T16:00:12;3.70;;;1.80;;
67352;SDS011;54238;52.278;21.056;2023-05-07T16:02:42;4.20;;;1.80;;
67352;SDS011;54238;52.278;21.056;2023-05-07T16:05:13;4.30;;;1.60;;
67352;SDS011;54238;52.278;21.056;2023-05-07T16:07:41;4.00;;;1.90;;